sensor_id;sensor_type;location;lat;lon;timestamp;temperature;humidity
44166;DHT22;30476;53.468;9.826;2022-09-01T00:01:49;16.20;82.40
44166;DHT22;30476;53.468;9.826;2022-09-01T00:04:17;16.20;82.40
44166;DHT22;30476;53.468;9.826;2022-09-01T00:06:45;16.20;82.10
44166;DHT22;30476;53.468;9.826;2022-09-01T00:09:14;16.10;82.40
44166;DHT22;30476;53.468;9.826;2022-09-01T00:11:43;16.10;82.50
44166;DHT22;30476;53.468;9.826;2022-09-01T00:14:10;16.00;82.60
44166;DHT22;30476;53.468;9.826;2022-09-01T00:16:36;16.00;83.20
44166;DHT22;30476;53.468;9.826;2022-09-01T00:19:03;16.00;83.30
44166;DHT22;30476;53.468;9.826;2022-09-01T00:21:36;16.00;83.60
44166;DHT22;30476;53.468;9.826;2022-09-01T00:24:03;15.90;83.80
44166;DHT22;30476;53.468;9.826;2022-09-01T00:26:29;15.90;84.10
44166;DHT22;30476;53.468;9.826;2022-09-01T00:28:55;15.90;84.50
44166;DHT22;30476;53.468;9.826;2022-09-01T00:31:21;15.80;84.60
44166;DHT22;30476;53.468;9.826;2022-09-01T00:33:48;15.80;84.90
44166;DHT22;30476;53.468;9.826;2022-09-01T00:36:15;15.80;85.40
44166;DHT22;30476;53.468;9.826;2022-09-01T00:38:42;15.70;85.90
44166;DHT22;30476;53.468;9.826;2022-09-01T00:41:08;15.60;86.20
44166;DHT22;30476;53.468;9.826;2022-09-01T00:43:41;15.60;86.00
44166;DHT22;30476;53.468;9.826;2022-09-01T00:46:13;15.60;86.20
44166;DHT22;30476;53.468;9.826;2022-09-01T00:48:39;15.60;86.20
44166;DHT22;30476;53.468;9.826;2022-09-01T00:51:07;15.60;86.50
44166;DHT22;30476;53.468;9.826;2022-09-01T00:53:34;15.50;86.60
44166;DHT22;30476;53.468;9.826;2022-09-01T00:56:01;15.50;86.90
44166;DHT22;30476;53.468;9.826;2022-09-01T00:58:28;15.40;87.00
44166;DHT22;30476;53.468;9.826;2022-09-01T01:00:54;15.50;87.70
44166;DHT22;30476;53.468;9.826;2022-09-01T01:03:21;15.40;87.80
44166;DHT22;30476;53.468;9.826;2022-09-01T01:05:50;15.40;87.90
44166;DHT22;30476;53.468;9.826;2022-09-01T01:08:26;15.30;87.40
44166;DHT22;30476;53.468;9.826;2022-09-01T01:11:10;15.40;87.20
44166;DHT22;30476;53.468;9.826;2022-09-01T01:13:55;15.30;87.00
44166;DHT22;30476;53.468;9.826;2022-09-01T01:16:23;15.30;87.30
44166;DHT22;30476;53.468;9.826;2022-09-01T01:18:50;15.30;87.80
44166;DHT22;30476;53.468;9.826;2022-09-01T01:21:35;15.30;88.30
44166;DHT22;30476;53.468;9.826;2022-09-01T01:24:38;15.30;88.60
44166;DHT22;30476;53.468;9.826;2022-09-01T01:27:04;15.30;88.80
44166;DHT22;30476;53.468;9.826;2022-09-01T01:29:34;15.20;88.90
44166;DHT22;30476;53.468;9.826;2022-09-01T01:32:02;15.20;89.30
44166;DHT22;30476;53.468;9.826;2022-09-01T01:34:30;15.20;89.40
44166;DHT22;30476;53.468;9.826;2022-09-01T01:36:56;15.20;89.70
44166;DHT22;30476;53.468;9.826;2022-09-01T01:39:24;15.20;89.80
44166;DHT22;30476;53.468;9.826;2022-09-01T01:41:51;15.10;89.90
44166;DHT22;30476;53.468;9.826;2022-09-01T01:44:21;15.20;89.70
44166;DHT22;30476;53.468;9.826;2022-09-01T01:46:49;15.10;89.50
44166;DHT22;30476;53.468;9.826;2022-09-01T01:49:18;15.00;89.40
44166;DHT22;30476;53.468;9.826;2022-09-01T01:51:47;15.00;89.20
44166;DHT22;30476;53.468;9.826;2022-09-01T01:54:14;14.90;89.10
44166;DHT22;30476;53.468;9.826;2022-09-01T01:56:40;15.00;89.50
44166;DHT22;30476;53.468;9.826;2022-09-01T01:59:07;14.90;89.30
44166;DHT22;30476;53.468;9.826;2022-09-01T02:01:35;14.90;89.60
44166;DHT22;30476;53.468;9.826;2022-09-01T02:04:01;14.90;89.50
44166;DHT22;30476;53.468;9.826;2022-09-01T02:06:32;14.80;89.40
44166;DHT22;30476;53.468;9.826;2022-09-01T02:08:59;14.80;89.50
44166;DHT22;30476;53.468;9.826;2022-09-01T02:11:28;14.80;89.60
44166;DHT22;30476;53.468;9.826;2022-09-01T02:13:55;14.80;89.50
44166;DHT22;30476;53.468;9.826;2022-09-01T02:16:26;14.70;89.10
44166;DHT22;30476;53.468;9.826;2022-09-01T02:18:52;14.70;89.30
44166;DHT22;30476;53.468;9.826;2022-09-01T02:21:21;14.70;89.40
44166;DHT22;30476;53.468;9.826;2022-09-01T02:23:59;14.70;89.40
44166;DHT22;30476;53.468;9.826;2022-09-01T02:26:38;14.70;89.60
44166;DHT22;30476;53.468;9.826;2022-09-01T02:29:08;14.70;90.10
44166;DHT22;30476;53.468;9.826;2022-09-01T02:31:43;14.70;90.10
44166;DHT22;30476;53.468;9.826;2022-09-01T02:34:09;14.60;90.00
44166;DHT22;30476;53.468;9.826;2022-09-01T02:36:43;14.70;90.20
44166;DHT22;30476;53.468;9.826;2022-09-01T02:39:14;14.70;90.00
44166;DHT22;30476;53.468;9.826;2022-09-01T02:41:40;14.70;90.00
44166;DHT22;30476;53.468;9.826;2022-09-01T02:44:06;14.70;90.20
44166;DHT22;30476;53.468;9.826;2022-09-01T02:46:43;14.60;90.20
44166;DHT22;30476;53.468;9.826;2022-09-01T02:49:12;14.60;90.40
44166;DHT22;30476;53.468;9.826;2022-09-01T02:51:47;14.60;90.60
44166;DHT22;30476;53.468;9.826;2022-09-01T02:54:18;14.50;90.60
44166;DHT22;30476;53.468;9.826;2022-09-01T02:56:51;14.50;90.80
44166;DHT22;30476;53.468;9.826;2022-09-01T02:59:20;14.50;91.00
44166;DHT22;30476;53.468;9.826;2022-09-01T03:01:48;14.40;91.10
44166;DHT22;30476;53.468;9.826;2022-09-01T03:04:14;14.40;91.30
44166;DHT22;30476;53.468;9.826;2022-09-01T03:06:41;14.40;91.20
44166;DHT22;30476;53.468;9.826;2022-09-01T03:09:11;14.40;91.10
44166;DHT22;30476;53.468;9.826;2022-09-01T03:11:42;14.30;91.10
44166;DHT22;30476;53.468;9.826;2022-09-01T03:14:08;14.30;91.20
44166;DHT22;30476;53.468;9.826;2022-09-01T03:16:35;14.30;91.00
44166;DHT22;30476;53.468;9.826;2022-09-01T03:19:02;14.30;91.40
44166;DHT22;30476;53.468;9.826;2022-09-01T03:21:29;14.30;91.10
44166;DHT22;30476;53.468;9.826;2022-09-01T03:23:57;14.20;91.00
44166;DHT22;30476;53.468;9.826;2022-09-01T03:26:26;14.20;91.10
44166;DHT22;30476;53.468;9.826;2022-09-01T03:28:52;14.20;91.40
44166;DHT22;30476;53.468;9.826;2022-09-01T03:31:18;14.20;91.30
44166;DHT22;30476;53.468;9.826;2022-09-01T03:33:44;14.20;91.30
44166;DHT22;30476;53.468;9.826;2022-09-01T03:36:10;14.20;91.40
44166;DHT22;30476;53.468;9.826;2022-09-01T03:38:48;14.20;91.70
44166;DHT22;30476;53.468;9.826;2022-09-01T03:41:16;14.10;91.50
44166;DHT22;30476;53.468;9.826;2022-09-01T03:43:43;14.10;91.60
44166;DHT22;30476;53.468;9.826;2022-09-01T03:46:09;14.10;91.60
44166;DHT22;30476;53.468;9.826;2022-09-01T03:48:40;14.10;91.60
44166;DHT22;30476;53.468;9.826;2022-09-01T03:51:07;14.00;91.60
44166;DHT22;30476;53.468;9.826;2022-09-01T03:53:36;14.00;91.50
44166;DHT22;30476;53.468;9.826;2022-09-01T03:56:03;14.00;91.50
44166;DHT22;30476;53.468;9.826;2022-09-01T03:58:30;14.00;91.50
44166;DHT22;30476;53.468;9.826;2022-09-01T04:00:58;14.00;91.60
44166;DHT22;30476;53.468;9.826;2022-09-01T04:03:29;14.00;91.50
44166;DHT22;30476;53.468;9.826;2022-09-01T04:05:56;13.90;91.40
44166;DHT22;30476;53.468;9.826;2022-09-01T04:08:23;13.80;91.60
44166;DHT22;30476;53.468;9.826;2022-09-01T04:10:58;13.90;91.60
44166;DHT22;30476;53.468;9.826;2022-09-01T04:13:27;13.80;91.60
44166;DHT22;30476;53.468;9.826;2022-09-01T04:15:56;13.80;91.60
44166;DHT22;30476;53.468;9.826;2022-09-01T04:18:22;13.80;91.70
44166;DHT22;30476;53.468;9.826;2022-09-01T04:20:58;13.80;91.20
44166;DHT22;30476;53.468;9.826;2022-09-01T04:23:32;13.70;91.10
44166;DHT22;30476;53.468;9.826;2022-09-01T04:26:07;13.70;91.00
44166;DHT22;30476;53.468;9.826;2022-09-01T04:28:36;13.70;91.10
44166;DHT22;30476;53.468;9.826;2022-09-01T04:31:06;13.80;91.40
44166;DHT22;30476;53.468;9.826;2022-09-01T04:33:36;13.70;91.40
44166;DHT22;30476;53.468;9.826;2022-09-01T04:36:13;13.70;91.70
44166;DHT22;30476;53.468;9.826;2022-09-01T04:38:39;13.60;91.70
44166;DHT22;30476;53.468;9.826;2022-09-01T04:41:06;13.50;92.00
44166;DHT22;30476;53.468;9.826;2022-09-01T04:43:33;13.50;92.10
44166;DHT22;30476;53.468;9.826;2022-09-01T04:45:59;13.50;91.90
44166;DHT22;30476;53.468;9.826;2022-09-01T04:48:25;13.50;92.00
44166;DHT22;30476;53.468;9.826;2022-09-01T04:50:51;13.50;92.40
44166;DHT22;30476;53.468;9.826;2022-09-01T04:53:18;13.40;92.60
44166;DHT22;30476;53.468;9.826;2022-09-01T04:55:45;13.40;92.90
44166;DHT22;30476;53.468;9.826;2022-09-01T04:58:16;13.30;93.00
44166;DHT22;30476;53.468;9.826;2022-09-01T05:00:44;13.30;93.20
44166;DHT22;30476;53.468;9.826;2022-09-01T05:03:13;13.30;93.30
44166;DHT22;30476;53.468;9.826;2022-09-01T05:05:42;13.20;93.30
44166;DHT22;30476;53.468;9.826;2022-09-01T05:08:11;13.20;93.20
44166;DHT22;30476;53.468;9.826;2022-09-01T05:10:45;13.20;93.40
44166;DHT22;30476;53.468;9.826;2022-09-01T05:13:13;13.20;93.50
44166;DHT22;30476;53.468;9.826;2022-09-01T05:15:43;13.20;93.40
44166;DHT22;30476;53.468;9.826;2022-09-01T05:18:18;13.20;93.30
44166;DHT22;30476;53.468;9.826;2022-09-01T05:20:52;13.20;93.40
44166;DHT22;30476;53.468;9.826;2022-09-01T05:23:19;13.20;93.60
44166;DHT22;30476;53.468;9.826;2022-09-01T05:25:47;13.30;93.80
44166;DHT22;30476;53.468;9.826;2022-09-01T05:28:18;13.30;93.80
44166;DHT22;30476;53.468;9.826;2022-09-01T05:30:46;13.30;94.10
44166;DHT22;30476;53.468;9.826;2022-09-01T05:33:13;13.30;94.30
44166;DHT22;30476;53.468;9.826;2022-09-01T05:35:52;13.30;94.40
44166;DHT22;30476;53.468;9.826;2022-09-01T05:38:20;13.30;94.60
44166;DHT22;30476;53.468;9.826;2022-09-01T05:47:30;13.50;94.20
44166;DHT22;30476;53.468;9.826;2022-09-01T05:50:03;13.50;94.30
44166;DHT22;30476;53.468;9.826;2022-09-01T05:52:35;13.50;94.60
44166;DHT22;30476;53.468;9.826;2022-09-01T05:55:02;13.60;95.00
44166;DHT22;30476;53.468;9.826;2022-09-01T05:57:28;13.60;95.10
44166;DHT22;30476;53.468;9.826;2022-09-01T05:59:54;13.70;95.10
44166;DHT22;30476;53.468;9.826;2022-09-01T06:02:21;13.80;95.10
44166;DHT22;30476;53.468;9.826;2022-09-01T06:04:47;13.80;95.20
44166;DHT22;30476;53.468;9.826;2022-09-01T06:07:16;13.90;95.40
44166;DHT22;30476;53.468;9.826;2022-09-01T06:09:45;13.90;95.40
44166;DHT22;30476;53.468;9.826;2022-09-01T06:12:11;14.00;95.60
44166;DHT22;30476;53.468;9.826;2022-09-01T06:14:45;14.10;95.60
44166;DHT22;30476;53.468;9.826;2022-09-01T06:17:12;14.10;95.80
44166;DHT22;30476;53.468;9.826;2022-09-01T06:19:41;14.20;95.90
44166;DHT22;30476;53.468;9.826;2022-09-01T06:22:07;14.30;96.00
44166;DHT22;30476;53.468;9.826;2022-09-01T06:24:36;14.40;96.20
44166;DHT22;30476;53.468;9.826;2022-09-01T06:27:08;14.50;96.30
44166;DHT22;30476;53.468;9.826;2022-09-01T06:29:36;14.70;96.70
44166;DHT22;30476;53.468;9.826;2022-09-01T06:32:05;14.80;96.80
44166;DHT22;30476;53.468;9.826;2022-09-01T06:34:35;15.00;97.20
44166;DHT22;30476;53.468;9.826;2022-09-01T06:37:01;15.20;97.50
44166;DHT22;30476;53.468;9.826;2022-09-01T06:39:27;15.30;97.50
44166;DHT22;30476;53.468;9.826;2022-09-01T06:41:53;15.50;97.50
44166;DHT22;30476;53.468;9.826;2022-09-01T06:44:20;15.70;97.30
44166;DHT22;30476;53.468;9.826;2022-09-01T06:46:48;15.90;97.20
44166;DHT22;30476;53.468;9.826;2022-09-01T06:49:14;16.00;97.00
44166;DHT22;30476;53.468;9.826;2022-09-01T06:51:40;16.20;96.60
44166;DHT22;30476;53.468;9.826;2022-09-01T06:54:06;16.40;96.20
44166;DHT22;30476;53.468;9.826;2022-09-01T06:56:32;16.60;96.00
44166;DHT22;30476;53.468;9.826;2022-09-01T06:59:01;16.70;95.70
44166;DHT22;30476;53.468;9.826;2022-09-01T07:01:30;16.90;95.40
44166;DHT22;30476;53.468;9.826;2022-09-01T07:03:57;17.10;95.00
44166;DHT22;30476;53.468;9.826;2022-09-01T07:06:24;17.30;94.80
44166;DHT22;30476;53.468;9.826;2022-09-01T07:08:56;17.40;94.50
44166;DHT22;30476;53.468;9.826;2022-09-01T07:11:28;17.60;94.20
44166;DHT22;30476;53.468;9.826;2022-09-01T07:13:57;17.80;93.30
44166;DHT22;30476;53.468;9.826;2022-09-01T07:16:27;17.90;93.00
44166;DHT22;30476;53.468;9.826;2022-09-01T07:18:56;18.10;92.70
44166;DHT22;30476;53.468;9.826;2022-09-01T07:21:24;18.20;92.20
44166;DHT22;30476;53.468;9.826;2022-09-01T07:23:50;18.30;91.70
44166;DHT22;30476;53.468;9.826;2022-09-01T07:26:17;18.40;90.90
44166;DHT22;30476;53.468;9.826;2022-09-01T07:28:48;18.60;90.70
44166;DHT22;30476;53.468;9.826;2022-09-01T07:31:37;18.70;90.30
44166;DHT22;30476;53.468;9.826;2022-09-01T07:34:07;18.90;90.00
44166;DHT22;30476;53.468;9.826;2022-09-01T07:36:34;18.90;88.60
44166;DHT22;30476;53.468;9.826;2022-09-01T07:39:02;19.10;87.90
44166;DHT22;30476;53.468;9.826;2022-09-01T07:41:28;19.20;87.70
44166;DHT22;30476;53.468;9.826;2022-09-01T07:43:54;19.30;86.90
44166;DHT22;30476;53.468;9.826;2022-09-01T07:46:22;19.40;85.50
44166;DHT22;30476;53.468;9.826;2022-09-01T07:48:52;19.50;84.70
44166;DHT22;30476;53.468;9.826;2022-09-01T07:51:19;19.70;84.30
44166;DHT22;30476;53.468;9.826;2022-09-01T07:53:47;19.70;83.50
44166;DHT22;30476;53.468;9.826;2022-09-01T07:56:16;19.80;83.20
44166;DHT22;30476;53.468;9.826;2022-09-01T07:58:44;19.90;82.70
44166;DHT22;30476;53.468;9.826;2022-09-01T08:01:18;20.00;82.40
44166;DHT22;30476;53.468;9.826;2022-09-01T08:03:46;20.10;80.10
44166;DHT22;30476;53.468;9.826;2022-09-01T08:06:14;20.20;79.60
44166;DHT22;30476;53.468;9.826;2022-09-01T08:08:44;20.30;79.60
44166;DHT22;30476;53.468;9.826;2022-09-01T08:11:18;20.40;78.80
44166;DHT22;30476;53.468;9.826;2022-09-01T08:13:45;20.50;77.70
44166;DHT22;30476;53.468;9.826;2022-09-01T08:16:12;20.60;77.30
44166;DHT22;30476;53.468;9.826;2022-09-01T08:18:38;20.60;77.10
44166;DHT22;30476;53.468;9.826;2022-09-01T08:21:09;20.70;76.60
44166;DHT22;30476;53.468;9.826;2022-09-01T08:23:36;20.80;76.10
44166;DHT22;30476;53.468;9.826;2022-09-01T08:26:11;20.90;75.70
44166;DHT22;30476;53.468;9.826;2022-09-01T08:28:37;21.00;75.20
44166;DHT22;30476;53.468;9.826;2022-09-01T08:31:07;21.10;74.80
44166;DHT22;30476;53.468;9.826;2022-09-01T08:33:32;21.20;74.80
44166;DHT22;30476;53.468;9.826;2022-09-01T08:36:00;21.30;74.20
44166;DHT22;30476;53.468;9.826;2022-09-01T08:38:25;21.50;73.90
44166;DHT22;30476;53.468;9.826;2022-09-01T08:40:54;21.60;72.80
44166;DHT22;30476;53.468;9.826;2022-09-01T08:46:27;21.80;70.90
44166;DHT22;30476;53.468;9.826;2022-09-01T08:48:57;21.80;69.60
44166;DHT22;30476;53.468;9.826;2022-09-01T08:51:36;21.90;68.80
44166;DHT22;30476;53.468;9.826;2022-09-01T08:57:06;22.00;67.90
44166;DHT22;30476;53.468;9.826;2022-09-01T08:59:33;22.10;68.70
44166;DHT22;30476;53.468;9.826;2022-09-01T09:05:05;22.30;68.60
44166;DHT22;30476;53.468;9.826;2022-09-01T09:07:49;22.40;67.50
44166;DHT22;30476;53.468;9.826;2022-09-01T09:10:29;22.50;67.50
44166;DHT22;30476;53.468;9.826;2022-09-01T09:18:19;22.80;67.20
44166;DHT22;30476;53.468;9.826;2022-09-01T09:20:51;22.90;67.00
44166;DHT22;30476;53.468;9.826;2022-09-01T09:23:33;23.10;63.90
44166;DHT22;30476;53.468;9.826;2022-09-01T09:26:00;23.20;64.10
44166;DHT22;30476;53.468;9.826;2022-09-01T09:28:26;23.20;62.30
44166;DHT22;30476;53.468;9.826;2022-09-01T09:33:50;23.30;62.50
44166;DHT22;30476;53.468;9.826;2022-09-01T09:36:19;23.30;61.10
44166;DHT22;30476;53.468;9.826;2022-09-01T09:38:45;23.40;60.60
44166;DHT22;30476;53.468;9.826;2022-09-01T09:41:19;23.40;60.50
44166;DHT22;30476;53.468;9.826;2022-09-01T09:44:30;23.50;60.90
44166;DHT22;30476;53.468;9.826;2022-09-01T09:46:49;23.60;59.80
44166;DHT22;30476;53.468;9.826;2022-09-01T09:54:25;23.90;59.60
44166;DHT22;30476;53.468;9.826;2022-09-01T09:57:14;24.00;60.60
44166;DHT22;30476;53.468;9.826;2022-09-01T10:02:35;24.10;58.20
44166;DHT22;30476;53.468;9.826;2022-09-01T10:07:47;24.20;55.70
44166;DHT22;30476;53.468;9.826;2022-09-01T10:13:04;24.40;56.20
44166;DHT22;30476;53.468;9.826;2022-09-01T10:15:32;24.40;55.30
44166;DHT22;30476;53.468;9.826;2022-09-01T10:18:05;24.60;53.90
44166;DHT22;30476;53.468;9.826;2022-09-01T10:20:33;24.60;52.10
44166;DHT22;30476;53.468;9.826;2022-09-01T10:23:01;24.70;53.10
44166;DHT22;30476;53.468;9.826;2022-09-01T10:25:31;24.80;53.60
44166;DHT22;30476;53.468;9.826;2022-09-01T10:28:11;24.90;54.00
44166;DHT22;30476;53.468;9.826;2022-09-01T10:30:42;25.00;54.70
44166;DHT22;30476;53.468;9.826;2022-09-01T10:33:12;25.20;53.20
44166;DHT22;30476;53.468;9.826;2022-09-01T10:35:41;25.40;53.90
44166;DHT22;30476;53.468;9.826;2022-09-01T10:38:20;25.50;52.60
44166;DHT22;30476;53.468;9.826;2022-09-01T10:40:49;25.60;53.00
44166;DHT22;30476;53.468;9.826;2022-09-01T10:43:38;25.80;51.70
44166;DHT22;30476;53.468;9.826;2022-09-01T10:48:50;25.80;50.10
44166;DHT22;30476;53.468;9.826;2022-09-01T10:53:53;25.70;49.00
44166;DHT22;30476;53.468;9.826;2022-09-01T11:06:54;26.10;49.50
44166;DHT22;30476;53.468;9.826;2022-09-01T11:09:31;26.20;48.50
44166;DHT22;30476;53.468;9.826;2022-09-01T11:17:57;26.60;49.10
44166;DHT22;30476;53.468;9.826;2022-09-01T11:20:28;26.80;48.00
44166;DHT22;30476;53.468;9.826;2022-09-01T11:33:20;27.00;47.90
44166;DHT22;30476;53.468;9.826;2022-09-01T11:35:59;27.00;48.00
44166;DHT22;30476;53.468;9.826;2022-09-01T11:38:26;27.00;46.70
44166;DHT22;30476;53.468;9.826;2022-09-01T11:40:57;27.00;46.60
44166;DHT22;30476;53.468;9.826;2022-09-01T11:43:24;26.90;47.70
44166;DHT22;30476;53.468;9.826;2022-09-01T11:46:18;26.70;47.00
44166;DHT22;30476;53.468;9.826;2022-09-01T11:48:47;26.80;47.90
44166;DHT22;30476;53.468;9.826;2022-09-01T11:51:14;26.90;48.10
44166;DHT22;30476;53.468;9.826;2022-09-01T11:53:42;27.10;46.00
44166;DHT22;30476;53.468;9.826;2022-09-01T11:56:17;27.30;46.30
44166;DHT22;30476;53.468;9.826;2022-09-01T11:58:44;27.50;46.20
44166;DHT22;30476;53.468;9.826;2022-09-01T12:01:35;27.60;46.30
44166;DHT22;30476;53.468;9.826;2022-09-01T12:04:25;27.80;44.50
44166;DHT22;30476;53.468;9.826;2022-09-01T12:06:56;27.90;44.70
44166;DHT22;30476;53.468;9.826;2022-09-01T12:09:36;28.10;44.20
44166;DHT22;30476;53.468;9.826;2022-09-01T12:12:05;28.10;43.20
44166;DHT22;30476;53.468;9.826;2022-09-01T12:14:31;28.10;43.30
44166;DHT22;30476;53.468;9.826;2022-09-01T12:17:02;28.00;42.80
44166;DHT22;30476;53.468;9.826;2022-09-01T12:19:31;27.90;42.70
44166;DHT22;30476;53.468;9.826;2022-09-01T12:22:14;27.80;43.30
44166;DHT22;30476;53.468;9.826;2022-09-01T12:24:50;27.50;43.00
44166;DHT22;30476;53.468;9.826;2022-09-01T12:27:17;27.40;43.80
44166;DHT22;30476;53.468;9.826;2022-09-01T12:29:43;27.20;44.90
44166;DHT22;30476;53.468;9.826;2022-09-01T12:32:11;27.10;45.50
44166;DHT22;30476;53.468;9.826;2022-09-01T12:34:44;26.90;45.70
44166;DHT22;30476;53.468;9.826;2022-09-01T12:37:21;26.70;46.30
44166;DHT22;30476;53.468;9.826;2022-09-01T12:39:49;26.60;47.00
44166;DHT22;30476;53.468;9.826;2022-09-01T12:44:57;26.30;47.70
44166;DHT22;30476;53.468;9.826;2022-09-01T12:52:54;25.90;48.60
44166;DHT22;30476;53.468;9.826;2022-09-01T12:55:26;25.70;49.00
44166;DHT22;30476;53.468;9.826;2022-09-01T12:57:58;25.50;49.40
44166;DHT22;30476;53.468;9.826;2022-09-01T13:00:30;25.50;50.40
44166;DHT22;30476;53.468;9.826;2022-09-01T13:03:14;25.40;51.10
44166;DHT22;30476;53.468;9.826;2022-09-01T13:05:44;25.40;51.60
44166;DHT22;30476;53.468;9.826;2022-09-01T13:08:15;25.50;49.70
44166;DHT22;30476;53.468;9.826;2022-09-01T13:10:44;25.70;50.30
44166;DHT22;30476;53.468;9.826;2022-09-01T13:13:12;25.90;49.50
44166;DHT22;30476;53.468;9.826;2022-09-01T13:15:42;26.10;49.30
44166;DHT22;30476;53.468;9.826;2022-09-01T13:18:08;26.20;49.00
44166;DHT22;30476;53.468;9.826;2022-09-01T13:20:35;26.50;48.20
44166;DHT22;30476;53.468;9.826;2022-09-01T13:23:01;26.60;48.00
44166;DHT22;30476;53.468;9.826;2022-09-01T13:25:27;26.80;46.60
44166;DHT22;30476;53.468;9.826;2022-09-01T13:27:53;27.00;46.20
44166;DHT22;30476;53.468;9.826;2022-09-01T13:30:22;27.10;46.40
44166;DHT22;30476;53.468;9.826;2022-09-01T13:32:49;27.20;46.40
44166;DHT22;30476;53.468;9.826;2022-09-01T13:35:17;27.30;45.30
44166;DHT22;30476;53.468;9.826;2022-09-01T13:37:47;27.30;45.70
44166;DHT22;30476;53.468;9.826;2022-09-01T13:40:15;27.20;45.30
44166;DHT22;30476;53.468;9.826;2022-09-01T13:42:43;27.10;45.60
44166;DHT22;30476;53.468;9.826;2022-09-01T13:45:09;26.90;45.50
44166;DHT22;30476;53.468;9.826;2022-09-01T13:47:39;26.80;45.50
44166;DHT22;30476;53.468;9.826;2022-09-01T13:50:05;26.70;45.90
44166;DHT22;30476;53.468;9.826;2022-09-01T13:52:31;26.40;46.30
44166;DHT22;30476;53.468;9.826;2022-09-01T13:54:57;26.30;46.80
44166;DHT22;30476;53.468;9.826;2022-09-01T13:57:23;26.20;47.20
44166;DHT22;30476;53.468;9.826;2022-09-01T13:59:49;26.10;46.70
44166;DHT22;30476;53.468;9.826;2022-09-01T14:02:15;25.90;46.50
44166;DHT22;30476;53.468;9.826;2022-09-01T14:04:41;25.80;46.80
44166;DHT22;30476;53.468;9.826;2022-09-01T14:07:06;25.70;47.00
44166;DHT22;30476;53.468;9.826;2022-09-01T14:09:33;25.70;47.20
44166;DHT22;30476;53.468;9.826;2022-09-01T14:11:58;25.50;47.00
44166;DHT22;30476;53.468;9.826;2022-09-01T14:14:24;25.40;47.10
44166;DHT22;30476;53.468;9.826;2022-09-01T14:16:50;25.30;47.70
44166;DHT22;30476;53.468;9.826;2022-09-01T14:19:16;25.20;48.10
44166;DHT22;30476;53.468;9.826;2022-09-01T14:21:42;25.20;48.00
44166;DHT22;30476;53.468;9.826;2022-09-01T14:24:09;25.20;48.00
44166;DHT22;30476;53.468;9.826;2022-09-01T14:26:34;25.30;47.90
44166;DHT22;30476;53.468;9.826;2022-09-01T14:29:00;25.30;47.40
44166;DHT22;30476;53.468;9.826;2022-09-01T14:31:27;25.30;47.30
44166;DHT22;30476;53.468;9.826;2022-09-01T14:33:54;25.40;47.50
44166;DHT22;30476;53.468;9.826;2022-09-01T14:36:25;25.40;47.60
44166;DHT22;30476;53.468;9.826;2022-09-01T14:38:52;25.40;47.80
44166;DHT22;30476;53.468;9.826;2022-09-01T14:41:19;25.40;46.50
44166;DHT22;30476;53.468;9.826;2022-09-01T14:43:46;25.40;46.10
44166;DHT22;30476;53.468;9.826;2022-09-01T14:46:12;25.40;46.70
44166;DHT22;30476;53.468;9.826;2022-09-01T14:48:39;25.30;46.90
44166;DHT22;30476;53.468;9.826;2022-09-01T14:51:06;25.20;48.20
44166;DHT22;30476;53.468;9.826;2022-09-01T14:53:32;25.20;49.30
44166;DHT22;30476;53.468;9.826;2022-09-01T14:56:00;25.10;49.80
44166;DHT22;30476;53.468;9.826;2022-09-01T14:58:27;25.00;49.80
44166;DHT22;30476;53.468;9.826;2022-09-01T15:00:54;24.90;50.20
44166;DHT22;30476;53.468;9.826;2022-09-01T15:03:24;24.90;50.00
44166;DHT22;30476;53.468;9.826;2022-09-01T15:05:52;24.90;50.10
44166;DHT22;30476;53.468;9.826;2022-09-01T15:08:19;24.80;50.30
44166;DHT22;30476;53.468;9.826;2022-09-01T15:10:45;24.70;50.40
44166;DHT22;30476;53.468;9.826;2022-09-01T15:13:11;24.60;50.50
44166;DHT22;30476;53.468;9.826;2022-09-01T15:15:38;24.60;50.80
44166;DHT22;30476;53.468;9.826;2022-09-01T15:18:04;24.60;50.80
44166;DHT22;30476;53.468;9.826;2022-09-01T15:20:30;24.50;50.70
44166;DHT22;30476;53.468;9.826;2022-09-01T15:23:18;24.40;50.90
44166;DHT22;30476;53.468;9.826;2022-09-01T15:25:44;24.30;50.70
44166;DHT22;30476;53.468;9.826;2022-09-01T15:28:10;24.20;50.70
44166;DHT22;30476;53.468;9.826;2022-09-01T15:30:36;24.20;50.70
44166;DHT22;30476;53.468;9.826;2022-09-01T15:33:03;24.20;50.80
44166;DHT22;30476;53.468;9.826;2022-09-01T15:35:30;24.10;51.30
44166;DHT22;30476;53.468;9.826;2022-09-01T15:37:57;24.10;51.50
44166;DHT22;30476;53.468;9.826;2022-09-01T15:40:23;24.10;52.00
44166;DHT22;30476;53.468;9.826;2022-09-01T15:42:49;24.10;52.00
44166;DHT22;30476;53.468;9.826;2022-09-01T15:45:20;24.10;51.50
44166;DHT22;30476;53.468;9.826;2022-09-01T15:47:46;24.10;51.10
44166;DHT22;30476;53.468;9.826;2022-09-01T15:50:18;24.10;51.00
44166;DHT22;30476;53.468;9.826;2022-09-01T15:52:53;24.20;52.20
44166;DHT22;30476;53.468;9.826;2022-09-01T15:55:22;24.20;51.40
44166;DHT22;30476;53.468;9.826;2022-09-01T15:57:49;24.20;51.60
44166;DHT22;30476;53.468;9.826;2022-09-01T16:00:16;24.20;52.10
44166;DHT22;30476;53.468;9.826;2022-09-01T16:02:42;24.20;52.30
44166;DHT22;30476;53.468;9.826;2022-09-01T16:05:09;24.10;52.60
44166;DHT22;30476;53.468;9.826;2022-09-01T16:07:35;24.10;52.80
44166;DHT22;30476;53.468;9.826;2022-09-01T16:10:01;24.10;53.20
44166;DHT22;30476;53.468;9.826;2022-09-01T16:12:27;24.00;53.30
44166;DHT22;30476;53.468;9.826;2022-09-01T16:14:53;24.00;53.20
44166;DHT22;30476;53.468;9.826;2022-09-01T16:17:39;23.90;53.80
44166;DHT22;30476;53.468;9.826;2022-09-01T16:20:22;23.80;53.50
44166;DHT22;30476;53.468;9.826;2022-09-01T16:22:57;23.80;53.50
44166;DHT22;30476;53.468;9.826;2022-09-01T16:25:30;23.70;53.70
44166;DHT22;30476;53.468;9.826;2022-09-01T16:28:01;23.60;53.90
44166;DHT22;30476;53.468;9.826;2022-09-01T16:30:28;23.60;54.50
44166;DHT22;30476;53.468;9.826;2022-09-01T16:32:58;23.60;54.40
44166;DHT22;30476;53.468;9.826;2022-09-01T16:38:41;23.50;54.40
44166;DHT22;30476;53.468;9.826;2022-09-01T16:46:42;23.40;54.40
44166;DHT22;30476;53.468;9.826;2022-09-01T16:52:57;23.30;54.60
44166;DHT22;30476;53.468;9.826;2022-09-01T16:55:47;23.30;55.10
44166;DHT22;30476;53.468;9.826;2022-09-01T16:58:42;23.20;55.20
44166;DHT22;30476;53.468;9.826;2022-09-01T17:04:14;23.00;55.80
44166;DHT22;30476;53.468;9.826;2022-09-01T17:09:59;22.90;56.30
44166;DHT22;30476;53.468;9.826;2022-09-01T17:12:35;22.80;56.40
44166;DHT22;30476;53.468;9.826;2022-09-01T17:15:15;22.70;56.20
44166;DHT22;30476;53.468;9.826;2022-09-01T17:18:11;22.60;56.60
44166;DHT22;30476;53.468;9.826;2022-09-01T17:20:42;22.60;56.80
44166;DHT22;30476;53.468;9.826;2022-09-01T17:23:11;22.50;57.00